Time;durP1;ratioP1;P1;durP2;ratioP2;P2;SDS_P1;SDS_P2;PMS_P1;PMS_P2;Temp;Humidity;BMP_temperature;BMP_pressure;BME280_temperature;BME280_humidity;BME280_pressure;Samples;Min_cycle;Max_cycle;Signal;HPM_P1;HPM_P2
2023/12/10 00:03:41;;;;;;;44.53;23.42;;;;;;;;;;10531369;28;20441;-91
2023/12/10 00:08:44;;;;;;;41.50;24.08;;;;;;;;;;10533069;28;20396;-91
2023/12/10 00:13:48;;;;;;;42.50;23.70;;;;;;;;;;10530335;28;20490;-91
2023/12/10 00:18:50;;;;;;;41.70;24.93;;;;;;;;;;10523421;28;20525;-91
2023/12/10 00:23:52;;;;;;;42.90;24.55;;;;;;;;;;10532274;28;20434;-91
2023/12/10 00:28:56;;;;;;;44.05;24.65;;;;;;;;;;10535983;28;20968;-91
2023/12/10 00:33:58;;;;;;;48.75;26.48;;;;;;;;;;10528864;28;20495;-91
2023/12/10 00:39:01;;;;;;;44.72;24.88;;;;;;;;;;10533708;28;20728;-91
2023/12/10 00:44:05;;;;;;;46.20;25.67;;;;;;;;;;10528703;28;20942;-91
2023/12/10 00:49:08;;;;;;;52.70;27.70;;;;;;;;;;10524792;28;20509;-92
2023/12/10 00:54:10;;;;;;;52.57;27.67;;;;;;;;;;10535853;28;20423;-92
2023/12/10 00:59:14;;;;;;;47.78;26.35;;;;;;;;;;10510635;28;20466;-92
2023/12/10 01:04:17;;;;;;;56.47;28.48;;;;;;;;;;10520132;28;20445;-87
2023/12/10 01:09:19;;;;;;;49.42;28.67;;;;;;;;;;10535385;28;20900;-85
2023/12/10 01:14:23;;;;;;;52.40;28.33;;;;;;;;;;10525957;28;20393;-85
2023/12/10 01:19:25;;;;;;;48.92;26.70;;;;;;;;;;10525015;28;20456;-86
2023/12/10 01:24:28;;;;;;;46.40;26.03;;;;;;;;;;10532005;28;20384;-85
2023/12/10 01:29:31;;;;;;;48.00;27.23;;;;;;;;;;10516395;28;20408;-86
2023/12/10 01:34:34;;;;;;;46.63;27.03;;;;;;;;;;10529354;28;20552;-87
2023/12/10 01:39:36;;;;;;;48.33;26.57;;;;;;;;;;10530199;28;20499;-85
2023/12/10 01:44:40;;;;;;;50.40;26.15;;;;;;;;;;10531788;28;20408;-86
2023/12/10 01:49:42;;;;;;;47.67;26.73;;;;;;;;;;10530694;28;20478;-86
2023/12/10 01:54:45;;;;;;;47.78;27.08;;;;;;;;;;10527119;28;20407;-86
2023/12/10 01:59:50;;;;;;;46.05;26.75;;;;;;;;;;10532127;28;20745;-86
2023/12/10 02:04:54;;;;;;;44.63;25.83;;;;;;;;;;10535647;28;20484;-86
2023/12/10 02:09:56;;;;;;;42.97;25.35;;;;;;;;;;10536274;28;20850;-86
2023/12/10 02:15:00;;;;;;;44.20;26.30;;;;;;;;;;10524149;28;20431;-86
2023/12/10 02:20:05;;;;;;;47.08;26.50;;;;;;;;;;10528617;28;20799;-86
2023/12/10 02:25:09;;;;;;;51.07;28.00;;;;;;;;;;10536132;28;20457;-86
2023/12/10 02:30:13;;;;;;;44.40;26.75;;;;;;;;;;10537706;28;20414;-86
2023/12/10 02:35:15;;;;;;;50.58;27.38;;;;;;;;;;10538389;28;20491;-86
2023/12/10 02:40:18;;;;;;;46.95;26.10;;;;;;;;;;10525793;28;20421;-86
2023/12/10 02:45:22;;;;;;;45.70;25.70;;;;;;;;;;10517776;28;20429;-85
2023/12/10 02:50:24;;;;;;;45.38;24.98;;;;;;;;;;10527778;28;20402;-85
2023/12/10 02:55:27;;;;;;;47.22;27.45;;;;;;;;;;10513773;28;20430;-85
2023/12/10 03:00:30;;;;;;;47.78;27.00;;;;;;;;;;10534471;28;20441;-86
2023/12/10 03:05:34;;;;;;;46.15;26.25;;;;;;;;;;10543967;28;20419;-86
2023/12/10 03:10:36;;;;;;;45.13;26.63;;;;;;;;;;10548411;28;20441;-86
2023/12/10 03:15:40;;;;;;;46.07;27.57;;;;;;;;;;10528926;28;20450;-86
2023/12/10 03:20:42;;;;;;;47.40;27.48;;;;;;;;;;10529925;28;20456;-86
2023/12/10 03:25:45;;;;;;;49.90;27.97;;;;;;;;;;10523050;28;20466;-86
2023/12/10 03:30:49;;;;;;;54.63;29.60;;;;;;;;;;10513566;28;20480;-86
2023/12/10 03:35:51;;;;;;;52.70;27.63;;;;;;;;;;10539832;28;20899;-86
2023/12/10 03:40:54;;;;;;;50.70;28.80;;;;;;;;;;10536464;28;20822;-86
2023/12/10 03:45:57;;;;;;;50.42;28.60;;;;;;;;;;10517872;28;20469;-83
2023/12/10 03:51:00;;;;;;;57.80;29.33;;;;;;;;;;10521263;28;20457;-86
2023/12/10 03:56:02;;;;;;;59.37;30.07;;;;;;;;;;10527730;28;20409;-86
2023/12/10 04:01:06;;;;;;;54.83;28.70;;;;;;;;;;10528493;28;21038;-86
2023/12/10 04:06:09;;;;;;;54.58;26.83;;;;;;;;;;10535537;28;20404;-86
2023/12/10 04:11:11;;;;;;;51.00;26.65;;;;;;;;;;10524598;28;20428;-86
2023/12/10 04:16:24;;;;;;;50.08;26.58;;;;;;;;;;10531217;28;20396;-86
2023/12/10 04:21:27;;;;;;;54.22;26.30;;;;;;;;;;10529004;28;20424;-86
2023/12/10 04:26:29;;;;;;;52.63;27.63;;;;;;;;;;10520081;28;20396;-86
2023/12/10 04:31:33;;;;;;;55.47;27.73;;;;;;;;;;10535156;28;20451;-86
2023/12/10 04:36:35;;;;;;;56.03;28.37;;;;;;;;;;10530998;28;20430;-86
2023/12/10 04:41:37;;;;;;;46.80;26.70;;;;;;;;;;10524993;28;20426;-86
2023/12/10 04:46:41;;;;;;;56.97;28.15;;;;;;;;;;10523801;28;20945;-86
2023/12/10 04:51:44;;;;;;;58.85;28.70;;;;;;;;;;10524325;28;20404;-86
2023/12/10 04:56:46;;;;;;;53.53;28.60;;;;;;;;;;10534561;28;20399;-86
2023/12/10 05:01:50;;;;;;;48.17;27.23;;;;;;;;;;10524977;28;21158;-86
2023/12/10 05:06:52;;;;;;;49.97;26.67;;;;;;;;;;10527175;28;20447;-87
2023/12/10 05:11:55;;;;;;;50.63;28.95;;;;;;;;;;10523868;28;20427;-86
2023/12/10 05:16:58;;;;;;;46.13;26.65;;;;;;;;;;10519153;28;20428;-85
2023/12/10 05:22:01;;;;;;;50.95;27.33;;;;;;;;;;10517010;28;20430;-85
2023/12/10 05:27:04;;;;;;;64.33;31.33;;;;;;;;;;10533140;28;20576;-86
2023/12/10 05:32:07;;;;;;;60.72;30.42;;;;;;;;;;10533725;28;20715;-85
2023/12/10 05:37:10;;;;;;;53.20;25.48;;;;;;;;;;10541857;28;20404;-86
2023/12/10 05:42:13;;;;;;;54.97;29.67;;;;;;;;;;10535004;28;20424;-87
2023/12/10 05:47:17;;;;;;;54.33;28.35;;;;;;;;;;10532003;28;20401;-84
2023/12/10 05:52:19;;;;;;;55.03;29.20;;;;;;;;;;10538864;28;20440;-85
2023/12/10 05:57:22;;;;;;;57.75;30.13;;;;;;;;;;10535760;28;20404;-86
2023/12/10 06:02:26;;;;;;;56.38;28.40;;;;;;;;;;10521801;28;20488;-87
2023/12/10 06:07:28;;;;;;;50.57;28.07;;;;;;;;;;10522681;28;20782;-86
2023/12/10 06:12:31;;;;;;;54.85;29.05;;;;;;;;;;10527864;28;20900;-86
2023/12/10 06:17:34;;;;;;;54.13;26.47;;;;;;;;;;10527214;28;20467;-85
2023/12/10 06:22:37;;;;;;;57.45;26.08;;;;;;;;;;10533862;28;20416;-85
2023/12/10 06:27:39;;;;;;;62.80;25.45;;;;;;;;;;10526851;28;20888;-86
2023/12/10 06:32:43;;;;;;;52.03;24.40;;;;;;;;;;10533253;28;20402;-86
2023/12/10 06:37:46;;;;;;;50.42;23.73;;;;;;;;;;10521504;28;20474;-85
2023/12/10 06:42:48;;;;;;;51.83;22.43;;;;;;;;;;10535798;28;20404;-85
2023/12/10 06:47:52;;;;;;;59.35;25.77;;;;;;;;;;10526368;28;20490;-86
2023/12/10 06:52:54;;;;;;;52.28;23.85;;;;;;;;;;10522450;28;20420;-86
2023/12/10 06:57:57;;;;;;;59.53;25.25;;;;;;;;;;10532090;28;20472;-88
2023/12/10 07:03:01;;;;;;;51.60;23.40;;;;;;;;;;10535464;28;20420;-87
2023/12/10 07:08:03;;;;;;;47.85;22.40;;;;;;;;;;10526621;28;20861;-89
2023/12/10 07:13:05;;;;;;;54.30;23.67;;;;;;;;;;10536802;28;20396;-86
2023/12/10 07:18:09;;;;;;;42.50;23.20;;;;;;;;;;10534500;28;20400;-86
2023/12/10 07:23:12;;;;;;;47.90;24.03;;;;;;;;;;10526383;28;20450;-86
2023/12/10 07:28:14;;;;;;;41.13;22.50;;;;;;;;;;10530361;28;20409;-86
2023/12/10 07:33:18;;;;;;;51.27;24.77;;;;;;;;;;10539113;28;20924;-85
2023/12/10 07:38:20;;;;;;;41.70;23.50;;;;;;;;;;10532631;28;20447;-86
2023/12/10 07:43:23;;;;;;;48.88;24.90;;;;;;;;;;10532616;28;20827;-84
2023/12/10 07:48:28;;;;;;;42.50;24.03;;;;;;;;;;10533014;28;20441;-85
2023/12/10 07:53:30;;;;;;;38.87;23.17;;;;;;;;;;10531764;28;20953;-86
2023/12/10 07:58:32;;;;;;;37.40;22.17;;;;;;;;;;10530679;28;20400;-86
2023/12/10 08:03:36;;;;;;;44.03;22.20;;;;;;;;;;10532810;28;20434;-86
2023/12/10 08:08:39;;;;;;;44.77;23.03;;;;;;;;;;10534254;28;20864;-85
2023/12/10 08:13:41;;;;;;;39.92;22.42;;;;;;;;;;10527604;28;20953;-85
2023/12/10 08:18:45;;;;;;;43.80;22.83;;;;;;;;;;10524373;28;20444;-86
2023/12/10 08:23:48;;;;;;;41.03;23.23;;;;;;;;;;10528769;28;20912;-86
2023/12/10 08:28:50;;;;;;;44.90;23.40;;;;;;;;;;10536127;22;20935;-85
2023/12/10 08:33:54;;;;;;;43.57;24.20;;;;;;;;;;10526532;28;20434;-85
2023/12/10 08:38:56;;;;;;;48.70;24.30;;;;;;;;;;10531070;28;20400;-86
2023/12/10 08:43:59;;;;;;;44.63;23.80;;;;;;;;;;10529386;28;20473;-85
2023/12/10 08:49:03;;;;;;;45.87;24.90;;;;;;;;;;10528201;28;20401;-85
2023/12/10 08:54:07;;;;;;;44.45;24.55;;;;;;;;;;10527705;28;20401;-85
2023/12/10 08:59:10;;;;;;;49.03;24.50;;;;;;;;;;10527966;28;20404;-85
2023/12/10 09:04:13;;;;;;;42.60;23.33;;;;;;;;;;10528298;28;20415;-86
2023/12/10 09:09:16;;;;;;;45.53;24.63;;;;;;;;;;10529628;28;20949;-85
2023/12/10 09:14:19;;;;;;;51.83;26.17;;;;;;;;;;10520875;28;20462;-86
2023/12/10 09:19:23;;;;;;;49.65;26.95;;;;;;;;;;10529302;28;20408;-85
2023/12/10 09:24:26;;;;;;;52.38;27.25;;;;;;;;;;10524705;28;20424;-86
2023/12/10 09:29:28;;;;;;;45.17;25.63;;;;;;;;;;10525432;28;20722;-85
2023/12/10 09:34:32;;;;;;;50.95;25.45;;;;;;;;;;10530173;28;20900;-84
2023/12/10 09:39:35;;;;;;;49.13;27.20;;;;;;;;;;10525628;28;20476;-88
2023/12/10 09:44:38;;;;;;;49.40;26.08;;;;;;;;;;10523877;28;20473;-85
2023/12/10 09:49:42;;;;;;;52.63;25.20;;;;;;;;;;10521412;28;20404;-85
2023/12/10 09:54:45;;;;;;;55.83;28.33;;;;;;;;;;10525317;28;20426;-84
2023/12/10 09:59:47;;;;;;;53.35;27.42;;;;;;;;;;10524084;28;20457;-85
2023/12/10 10:04:51;;;;;;;48.47;26.55;;;;;;;;;;10522251;28;20412;-89
2023/12/10 12:53:30;;;;;;;56.80;30.13;;;;;;;;;;12900489;22;2053099;-85
2023/12/10 12:58:33;;;;;;;62.53;33.20;;;;;;;;;;13094528;22;20389;-85
2023/12/10 13:03:35;;;;;;;53.42;28.83;;;;;;;;;;13103845;22;20405;-85
2023/12/10 13:08:39;;;;;;;56.23;29.17;;;;;;;;;;13097964;22;20350;-85
2023/12/10 13:13:42;;;;;;;57.60;29.88;;;;;;;;;;13097895;22;20373;-85
2023/12/10 13:18:45;;;;;;;48.40;25.98;;;;;;;;;;13086015;22;20449;-83
2023/12/10 13:23:49;;;;;;;55.47;28.93;;;;;;;;;;13086761;22;20389;-85
2023/12/10 13:28:51;;;;;;;58.37;30.27;;;;;;;;;;13081764;22;20383;-85
2023/12/10 13:33:54;;;;;;;54.95;29.05;;;;;;;;;;13098737;22;20366;-85
2023/12/10 13:38:58;;;;;;;52.30;29.25;;;;;;;;;;13086574;22;20370;-85
2023/12/10 13:44:03;;;;;;;53.38;28.13;;;;;;;;;;13085865;22;20467;-85
2023/12/10 13:49:05;;;;;;;51.33;27.02;;;;;;;;;;13084459;22;20868;-85
2023/12/10 13:54:09;;;;;;;53.97;27.35;;;;;;;;;;13087260;22;20393;-85
2023/12/10 13:59:12;;;;;;;51.90;27.58;;;;;;;;;;13105009;22;20444;-85
2023/12/10 14:04:28;;;;;;;54.90;27.63;;;;;;;;;;13082213;22;20404;-85
2023/12/10 14:09:32;;;;;;;55.13;31.02;;;;;;;;;;13083669;22;20396;-85
2023/12/10 14:14:36;;;;;;;52.22;28.48;;;;;;;;;;13089872;22;20377;-85
2023/12/10 14:19:38;;;;;;;50.30;28.27;;;;;;;;;;13064378;22;20718;-87
2023/12/10 14:24:42;;;;;;;55.03;28.73;;;;;;;;;;13101361;22;20432;-85
2023/12/10 14:29:44;;;;;;;53.10;28.77;;;;;;;;;;13122065;22;20373;-86
2023/12/10 14:34:47;;;;;;;53.40;29.17;;;;;;;;;;13099664;22;20401;-86
2023/12/10 14:39:51;;;;;;;53.90;28.45;;;;;;;;;;13101932;22;20367;-86
2023/12/10 14:44:53;;;;;;;56.50;28.58;;;;;;;;;;13124238;22;20397;-85
2023/12/10 14:49:55;;;;;;;59.67;32.00;;;;;;;;;;13124716;22;20718;-85
2023/12/10 14:54:59;;;;;;;55.80;31.50;;;;;;;;;;13102950;22;20362;-86
2023/12/10 15:00:02;;;;;;;55.72;30.40;;;;;;;;;;13102675;22;20363;-84
2023/12/10 15:05:05;;;;;;;59.00;30.93;;;;;;;;;;13104859;22;20375;-85
2023/12/10 15:10:09;;;;;;;58.90;30.60;;;;;;;;;;13102183;22;20440;-86
2023/12/10 15:15:12;;;;;;;62.45;33.00;;;;;;;;;;13126546;22;20417;-86
2023/12/10 15:20:16;;;;;;;62.55;31.40;;;;;;;;;;13109584;22;20359;-86
2023/12/10 15:25:20;;;;;;;62.17;32.47;;;;;;;;;;13109351;22;20390;-86
2023/12/10 15:30:22;;;;;;;63.55;32.30;;;;;;;;;;13108441;22;20367;-86
2023/12/10 15:35:24;;;;;;;70.55;33.40;;;;;;;;;;13106508;22;20398;-85
2023/12/10 15:40:30;;;;;;;69.53;31.42;;;;;;;;;;13131786;22;20730;-86
2023/12/10 15:45:33;;;;;;;65.38;29.05;;;;;;;;;;13107944;22;20443;-86
2023/12/10 15:50:35;;;;;;;64.37;31.33;;;;;;;;;;13108877;22;20695;-85
2023/12/10 15:55:39;;;;;;;65.43;29.95;;;;;;;;;;13109400;22;20394;-86
2023/12/10 16:00:42;;;;;;;64.22;30.73;;;;;;;;;;13109842;22;20370;-86
2023/12/10 16:05:44;;;;;;;69.13;31.05;;;;;;;;;;13107941;22;20839;-86
2023/12/10 16:10:48;;;;;;;67.10;33.27;;;;;;;;;;13109014;22;20417;-85
2023/12/10 16:15:51;;;;;;;63.60;30.85;;;;;;;;;;13107772;22;20369;-85
2023/12/10 16:20:54;;;;;;;60.60;30.40;;;;;;;;;;13107385;22;20418;-86
2023/12/10 16:25:57;;;;;;;60.55;29.92;;;;;;;;;;13127344;22;20417;-86
2023/12/10 16:31:00;;;;;;;66.78;31.08;;;;;;;;;;13108378;22;20683;-86
2023/12/10 16:36:02;;;;;;;65.47;33.28;;;;;;;;;;13106270;22;20421;-83
2023/12/10 16:41:07;;;;;;;67.90;33.17;;;;;;;;;;13107967;22;20363;-86
2023/12/10 16:46:13;;;;;;;62.65;30.63;;;;;;;;;;13101900;22;20405;-85
2023/12/10 16:51:16;;;;;;;66.07;31.15;;;;;;;;;;13104106;22;20369;-86
2023/12/10 16:56:20;;;;;;;64.88;32.15;;;;;;;;;;13104555;22;20448;-86
2023/12/10 17:01:24;;;;;;;64.90;32.13;;;;;;;;;;13104314;22;20394;-85
2023/12/10 17:06:26;;;;;;;64.35;31.58;;;;;;;;;;13102578;22;20447;-85
2023/12/10 17:11:31;;;;;;;54.17;28.23;;;;;;;;;;13126082;22;20428;-85
2023/12/10 17:16:33;;;;;;;52.83;28.77;;;;;;;;;;13104171;22;20636;-86
2023/12/10 17:21:36;;;;;;;55.13;28.85;;;;;;;;;;13106577;22;20386;-85
2023/12/10 17:26:40;;;;;;;59.97;30.10;;;;;;;;;;13126925;22;20923;-85
2023/12/10 17:31:42;;;;;;;63.72;30.27;;;;;;;;;;13105233;22;21134;-84
2023/12/10 17:36:47;;;;;;;58.00;29.70;;;;;;;;;;13126226;22;20409;-84
2023/12/10 17:41:51;;;;;;;62.50;30.33;;;;;;;;;;13103762;22;20389;-86
2023/12/10 17:46:53;;;;;;;57.85;29.27;;;;;;;;;;13099579;22;20371;-85
2023/12/10 17:51:56;;;;;;;62.27;29.23;;;;;;;;;;13110752;22;20444;-85
2023/12/10 17:57:00;;;;;;;58.63;30.48;;;;;;;;;;13093289;22;20893;-85
2023/12/10 18:02:02;;;;;;;59.05;31.13;;;;;;;;;;13113477;22;20382;-85
2023/12/10 18:07:05;;;;;;;64.68;32.05;;;;;;;;;;13098949;22;20456;-85
2023/12/10 18:12:08;;;;;;;69.47;31.23;;;;;;;;;;13099037;22;20375;-85
2023/12/10 18:17:11;;;;;;;62.13;32.80;;;;;;;;;;13099002;22;20390;-84
2023/12/10 18:22:13;;;;;;;72.38;32.35;;;;;;;;;;13099547;22;20393;-85
2023/12/10 18:27:17;;;;;;;63.17;34.80;;;;;;;;;;13094299;22;20451;-85
2023/12/10 18:32:19;;;;;;;60.88;32.65;;;;;;;;;;13096448;22;20416;-84
2023/12/10 18:37:22;;;;;;;55.30;30.20;;;;;;;;;;13100531;22;20912;-84
2023/12/10 18:42:26;;;;;;;57.23;29.50;;;;;;;;;;13102303;22;20830;-83
2023/12/10 18:47:28;;;;;;;52.28;26.52;;;;;;;;;;13100954;22;20865;-85
2023/12/10 18:52:30;;;;;;;53.53;26.60;;;;;;;;;;13114572;22;20358;-84
2023/12/10 18:57:34;;;;;;;58.78;28.25;;;;;;;;;;13100119;22;20363;-84
2023/12/10 19:02:37;;;;;;;50.85;28.55;;;;;;;;;;13117979;22;20829;-84
2023/12/10 19:07:39;;;;;;;59.50;29.33;;;;;;;;;;13102838;22;20472;-85
2023/12/10 19:12:43;;;;;;;55.45;29.00;;;;;;;;;;13099294;22;20375;-85
2023/12/10 19:17:45;;;;;;;57.33;28.90;;;;;;;;;;13102841;22;20367;-85
2023/12/10 19:22:50;;;;;;;53.53;29.75;;;;;;;;;;13103959;22;20428;-86
2023/12/10 19:27:57;;;;;;;58.77;30.97;;;;;;;;;;13125167;22;20381;-83
2023/12/10 19:33:00;;;;;;;70.00;35.17;;;;;;;;;;13099273;22;20407;-85
2023/12/10 19:38:02;;;;;;;56.45;30.38;;;;;;;;;;13101534;22;20398;-86
2023/12/10 19:43:06;;;;;;;57.85;31.75;;;;;;;;;;13098360;22;20375;-86
2023/12/10 19:48:11;;;;;;;53.83;29.70;;;;;;;;;;13101617;22;20448;-85
2023/12/10 19:53:13;;;;;;;51.75;27.02;;;;;;;;;;13101517;22;20375;-84
2023/12/10 19:58:20;;;;;;;48.72;28.58;;;;;;;;;;13102668;22;20367;-86
2023/12/10 20:03:22;;;;;;;43.47;27.17;;;;;;;;;;13102283;22;20409;-84
2023/12/10 20:08:25;;;;;;;56.72;31.83;;;;;;;;;;13102863;22;20851;-84
2023/12/10 20:13:29;;;;;;;56.47;32.30;;;;;;;;;;13095560;22;20366;-86
2023/12/10 20:18:32;;;;;;;57.13;33.35;;;;;;;;;;13099075;22;20888;-85
2023/12/10 20:23:34;;;;;;;55.35;31.67;;;;;;;;;;13102559;22;20363;-84
2023/12/10 20:28:38;;;;;;;62.72;34.88;;;;;;;;;;13102540;22;20928;-85
2023/12/10 20:33:41;;;;;;;60.10;34.15;;;;;;;;;;13098929;22;20413;-87
2023/12/10 20:38:44;;;;;;;56.58;33.45;;;;;;;;;;13101832;22;20375;-87
2023/12/10 20:43:48;;;;;;;65.37;34.60;;;;;;;;;;13101291;22;20405;-86
2023/12/10 20:48:50;;;;;;;58.00;34.33;;;;;;;;;;13100359;22;20387;-87
2023/12/10 20:53:52;;;;;;;54.67;32.17;;;;;;;;;;13100011;22;20448;-87
2023/12/10 20:58:56;;;;;;;60.50;34.50;;;;;;;;;;13115348;22;20433;-84
2023/12/10 21:03:59;;;;;;;61.28;33.10;;;;;;;;;;13101658;22;20432;-86
2023/12/10 21:09:02;;;;;;;57.30;33.17;;;;;;;;;;13101160;22;20379;-86
2023/12/10 21:14:06;;;;;;;51.67;30.63;;;;;;;;;;13100947;22;20428;-87
2023/12/10 21:19:09;;;;;;;50.80;30.17;;;;;;;;;;13101343;22;20835;-86
2023/12/10 21:24:15;;;;;;;50.65;31.08;;;;;;;;;;13101961;22;20413;-86
2023/12/10 21:29:18;;;;;;;50.30;29.23;;;;;;;;;;13099249;22;20383;-87
2023/12/10 21:34:21;;;;;;;49.85;26.85;;;;;;;;;;13097839;22;20379;-86
2023/12/10 21:39:23;;;;;;;46.25;27.98;;;;;;;;;;13105688;22;20424;-87
2023/12/10 21:44:27;;;;;;;48.53;29.67;;;;;;;;;;13098506;22;20417;-83
2023/12/10 21:49:30;;;;;;;43.53;28.03;;;;;;;;;;13101211;22;20387;-87
2023/12/10 21:54:32;;;;;;;44.30;27.80;;;;;;;;;;13100026;22;20371;-87
2023/12/10 21:59:36;;;;;;;41.37;26.30;;;;;;;;;;13100280;22;20417;-86
2023/12/10 22:04:38;;;;;;;45.78;28.52;;;;;;;;;;13099074;22;20404;-87
2023/12/10 22:09:41;;;;;;;52.35;30.15;;;;;;;;;;13102672;22;20383;-86
2023/12/10 22:14:44;;;;;;;51.25;28.85;;;;;;;;;;13099663;22;20379;-86
2023/12/10 22:19:47;;;;;;;51.83;31.08;;;;;;;;;;13099960;22;20421;-87
2023/12/10 22:24:49;;;;;;;50.20;29.70;;;;;;;;;;13099543;22;20383;-87
2023/12/10 22:29:53;;;;;;;54.60;29.35;;;;;;;;;;13101377;22;20383;-86
2023/12/10 22:34:55;;;;;;;54.10;30.13;;;;;;;;;;13102918;22;20375;-86
2023/12/10 22:40:01;;;;;;;48.35;27.88;;;;;;;;;;13101273;22;20433;-86
2023/12/10 22:45:06;;;;;;;54.08;29.75;;;;;;;;;;13100107;22;20429;-87
2023/12/10 22:50:09;;;;;;;57.72;32.20;;;;;;;;;;13101598;22;20846;-86
2023/12/10 22:55:11;;;;;;;51.53;30.08;;;;;;;;;;13096239;22;20375;-86
2023/12/10 23:00:19;;;;;;;50.25;29.63;;;;;;;;;;13101209;22;20420;-86
2023/12/10 23:05:21;;;;;;;46.90;28.70;;;;;;;;;;13106560;22;20420;-85
2023/12/10 23:10:24;;;;;;;50.40;28.75;;;;;;;;;;13102138;22;20405;-84
2023/12/10 23:15:29;;;;;;;48.20;28.13;;;;;;;;;;13123195;22;20432;-85
2023/12/10 23:20:31;;;;;;;48.28;29.67;;;;;;;;;;13104778;22;20746;-86
2023/12/10 23:25:35;;;;;;;49.47;29.58;;;;;;;;;;13127878;22;20737;-85
2023/12/10 23:30:38;;;;;;;48.30;28.67;;;;;;;;;;13127593;22;20375;-86
2023/12/10 23:35:43;;;;;;;45.60;29.80;;;;;;;;;;13109719;22;20360;-85
2023/12/10 23:40:46;;;;;;;47.67;30.33;;;;;;;;;;13110640;22;20409;-83
2023/12/10 23:45:50;;;;;;;54.92;32.97;;;;;;;;;;13109300;22;20416;-86
2023/12/10 23:50:52;;;;;;;50.97;31.05;;;;;;;;;;13109838;22;20374;-85
2023/12/10 23:55:54;;;;;;;48.30;30.23;;;;;;;;;;13109511;22;20843;-84
